Time;durP1;ratioP1;P1;durP2;ratioP2;P2;SDS_P1;SDS_P2;PMS_P1;PMS_P2;Temp;Humidity;BMP_temperature;BMP_pressure;BME280_temperature;BME280_humidity;BME280_pressure;Samples;Min_cycle;Max_cycle;Signal;HPM_P1;HPM_P2
2021/11/23 00:00:12;;;;;;;12.95;8.10;;;;;;;14.61;41.38;103549.72;5093616;28;20064;-74
2021/11/23 00:02:39;;;;;;;12.98;8.23;;;;;;;14.67;41.26;103543.13;5093312;28;20117;-74
2021/11/23 00:05:06;;;;;;;11.73;7.60;;;;;;;14.76;41.39;103543.41;5093522;28;20389;-74
2021/11/23 00:07:32;;;;;;;13.27;8.30;;;;;;;14.85;41.11;103541.75;5093474;28;20024;-74
2021/11/23 00:09:58;;;;;;;12.75;7.93;;;;;;;14.89;41.34;103540.94;5093427;28;20028;-74
2021/11/23 00:12:24;;;;;;;12.38;7.70;;;;;;;15.00;41.10;103530.75;5093343;28;20471;-75
2021/11/23 00:14:50;;;;;;;12.57;7.65;;;;;;;15.10;41.13;103533.50;5093387;28;20130;-74
2021/11/23 00:17:16;;;;;;;11.88;7.18;;;;;;;15.17;40.97;103535.97;5093196;28;20107;-74
2021/11/23 00:19:42;;;;;;;14.05;8.63;;;;;;;15.19;40.92;103531.84;5093284;28;20157;-75
2021/11/23 00:22:08;;;;;;;11.02;7.47;;;;;;;15.22;41.27;103533.22;5074951;28;20023;-75
2021/11/23 00:24:33;;;;;;;10.95;7.82;;;;;;;15.24;41.05;103533.75;5092540;28;20378;-78
2021/11/23 00:26:59;;;;;;;10.55;8.02;;;;;;;15.31;41.15;103530.72;5091993;28;20032;-75
2021/11/23 00:29:24;;;;;;;10.52;8.25;;;;;;;15.33;41.04;103526.59;5093072;28;20520;-75
2021/11/23 00:31:50;;;;;;;11.88;8.45;;;;;;;15.34;41.02;103522.75;5092965;28;20036;-75
2021/11/23 00:34:16;;;;;;;15.27;8.82;;;;;;;15.40;40.86;103529.88;5092760;28;20028;-75
2021/11/23 00:36:41;;;;;;;15.43;8.75;;;;;;;15.44;41.08;103531.00;5093139;28;20387;-75
2021/11/23 00:39:07;;;;;;;12.85;9.07;;;;;;;15.50;41.09;103538.16;5092840;28;20039;-74
2021/11/23 00:41:32;;;;;;;10.40;8.02;;;;;;;15.53;41.02;103526.56;5092925;28;20110;-74
2021/11/23 00:43:58;;;;;;;14.35;8.15;;;;;;;15.56;41.04;103527.91;5074646;28;20031;-74
2021/11/23 00:46:24;;;;;;;10.63;8.95;;;;;;;15.60;40.81;103522.69;5093061;28;20462;-74
2021/11/23 00:48:49;;;;;;;12.85;9.15;;;;;;;15.64;40.95;103523.78;5092833;28;20382;-74
2021/11/23 00:51:15;;;;;;;10.73;8.35;;;;;;;15.63;40.93;103522.16;5092702;28;20059;-73
2021/11/23 00:53:40;;;;;;;13.13;8.90;;;;;;;15.65;41.13;103522.72;5092811;28;20402;-74
2021/11/23 00:56:07;;;;;;;13.27;8.98;;;;;;;15.69;41.03;103523.78;5092678;28;20020;-73
2021/11/23 00:58:34;;;;;;;14.50;8.55;;;;;;;15.73;40.88;103538.69;5092674;28;20028;-74
2021/11/23 01:01:00;;;;;;;10.27;8.27;;;;;;;15.76;41.14;103532.59;5092701;28;20035;-74
2021/11/23 01:03:28;;;;;;;11.25;8.77;;;;;;;15.74;41.08;103532.88;5092385;28;20048;-86
2021/11/23 01:05:58;;;;;;;12.45;8.02;;;;;;;15.74;41.07;103527.38;5074518;28;20383;-75
2021/11/23 01:08:24;;;;;;;11.40;6.80;;;;;;;15.82;41.14;103531.47;5092569;28;20028;-75
2021/11/23 01:10:51;;;;;;;12.88;8.10;;;;;;;15.87;40.98;103530.63;5092557;28;20028;-75
2021/11/23 01:13:17;;;;;;;10.30;7.18;;;;;;;15.90;41.00;103530.91;5092837;28;20058;-75
2021/11/23 01:15:43;;;;;;;11.90;7.35;;;;;;;15.87;41.28;103525.94;5092562;28;20027;-75
2021/11/23 01:18:08;;;;;;;11.32;7.53;;;;;;;15.87;41.01;103523.19;5092521;28;20024;-75
2021/11/23 01:20:36;;;;;;;9.10;6.07;;;;;;;15.80;41.46;103512.47;5092531;28;20028;-75
2021/11/23 01:23:02;;;;;;;9.75;6.25;;;;;;;15.81;41.47;103519.63;5092411;28;20122;-75
2021/11/23 01:25:28;;;;;;;12.48;6.85;;;;;;;15.87;41.25;103511.31;5092468;28;20538;-75
2021/11/23 01:27:54;;;;;;;8.20;5.82;;;;;;;15.87;41.40;103520.44;5092403;28;20055;-75
2021/11/23 01:30:20;;;;;;;6.63;5.57;;;;;;;15.85;41.69;103511.59;5092426;28;20052;-75
2021/11/23 01:32:45;;;;;;;13.25;6.57;;;;;;;15.90;41.55;103517.09;5074176;28;20032;-75
2021/11/23 01:35:14;;;;;;;8.95;5.85;;;;;;;15.92;41.51;103514.88;5074179;28;20458;-75
2021/11/23 01:37:43;;;;;;;9.75;5.85;;;;;;;15.98;41.63;103513.75;5092332;28;20428;-75
2021/11/23 01:40:10;;;;;;;11.30;6.15;;;;;;;15.97;41.59;103517.63;5092297;28;20024;-75
2021/11/23 01:42:36;;;;;;;8.95;6.57;;;;;;;15.98;41.64;103505.50;5379641;22;20060;-74
2021/11/23 01:45:03;;;;;;;9.90;6.50;;;;;;;16.08;41.58;103507.38;5053360;28;20029;-75
2021/11/23 01:47:29;;;;;;;13.43;7.03;;;;;;;16.14;41.34;103506.25;5037998;28;20692;-76
2021/11/23 01:49:55;;;;;;;8.95;6.18;;;;;;;16.16;41.36;103501.25;5055985;28;20021;-75
2021/11/23 01:52:21;;;;;;;12.15;7.05;;;;;;;16.02;41.65;103495.56;5055901;28;20037;-75
2021/11/23 01:54:47;;;;;;;10.35;7.38;;;;;;;16.05;41.85;103506.00;5055765;28;20029;-74
2021/11/23 01:57:12;;;;;;;11.73;6.53;;;;;;;16.06;41.81;103499.38;5055777;28;20033;-74
2021/11/23 01:59:38;;;;;;;8.65;6.45;;;;;;;16.07;41.73;103506.53;5055753;28;20421;-75
2021/11/23 02:02:04;;;;;;;9.90;7.35;;;;;;;16.11;41.79;103503.22;5037415;28;20029;-74
2021/11/23 02:04:29;;;;;;;11.20;6.43;;;;;;;16.11;41.93;103497.72;5055592;28;20060;-74
2021/11/23 02:06:55;;;;;;;9.45;5.55;;;;;;;16.22;41.53;103496.53;5055511;28;20032;-74
2021/11/23 02:09:21;;;;;;;13.10;5.78;;;;;;;16.14;41.58;103489.69;5055479;28;20025;-83
2021/11/23 02:11:47;;;;;;;8.50;5.75;;;;;;;16.20;41.83;103496.00;5055434;28;20029;-83
2021/11/23 02:14:13;;;;;;;8.88;5.72;;;;;;;16.20;41.82;103494.06;5055693;28;20033;-74
2021/11/23 02:16:38;;;;;;;11.45;5.68;;;;;;;16.28;41.64;103492.66;5055715;28;20033;-75
2021/11/23 02:19:04;;;;;;;6.35;4.80;;;;;;;16.30;41.57;103491.25;5055348;28;20090;-74
2021/11/23 02:21:29;;;;;;;10.02;5.40;;;;;;;16.30;41.72;103490.41;5055482;28;20169;-75
2021/11/23 02:23:55;;;;;;;10.05;5.53;;;;;;;16.32;41.62;103489.03;5055199;28;20033;-75
2021/11/23 02:26:21;;;;;;;7.97;5.22;;;;;;;16.22;41.81;103486.31;5055024;28;20029;-79
2021/11/23 02:28:47;;;;;;;7.40;4.47;;;;;;;16.19;41.89;103486.09;5053886;28;20511;-75
2021/11/23 02:31:13;;;;;;;14.82;5.22;;;;;;;16.27;41.72;103489.06;5055175;28;20394;-74
2021/11/23 02:33:40;;;;;;;8.50;4.75;;;;;;;16.34;41.53;103488.75;5055020;28;20029;-74
2021/11/23 02:36:09;;;;;;;8.60;5.03;;;;;;;16.32;41.53;103493.72;5055078;28;20082;-75
2021/11/23 02:38:36;;;;;;;7.60;5.00;;;;;;;16.29;41.62;103494.28;5055077;28;20463;-75
2021/11/23 02:41:05;;;;;;;10.85;5.75;;;;;;;16.28;41.88;103495.41;5055077;28;20059;-80
2021/11/23 02:43:31;;;;;;;8.65;5.50;;;;;;;16.25;41.95;103496.00;5054591;28;20061;-75
2021/11/23 02:45:57;;;;;;;10.63;6.10;;;;;;;16.29;41.84;103491.53;5054846;28;20029;-75
2021/11/23 02:48:23;;;;;;;7.10;4.70;;;;;;;16.34;41.76;103491.50;5054925;28;20522;-74
2021/11/23 02:50:58;;;;;;;7.10;4.57;;;;;;;16.24;41.83;103484.09;5054770;28;20024;-74
2021/11/23 02:53:24;;;;;;;6.63;4.20;;;;;;;16.59;41.19;103484.97;5054669;28;20029;-75
2021/11/23 02:55:50;;;;;;;6.18;4.30;;;;;;;16.71;40.89;103487.44;5054277;28;20540;-75
2021/11/23 02:58:16;;;;;;;6.22;4.03;;;;;;;16.47;41.44;103488.09;5054218;28;20387;-74
2021/11/23 03:00:42;;;;;;;7.82;4.78;;;;;;;16.41;41.55;103486.50;5054571;28;20035;-74
2021/11/23 03:03:07;;;;;;;6.70;4.35;;;;;;;16.33;41.60;103484.34;5036560;28;20033;-74
2021/11/23 03:05:33;;;;;;;10.00;4.80;;;;;;;16.41;41.69;103483.75;5036553;28;20363;-75
2021/11/23 03:07:59;;;;;;;6.07;4.45;;;;;;;16.41;41.64;103478.22;5054448;28;20386;-74
2021/11/23 03:10:29;;;;;;;11.75;7.07;;;;;;;16.29;41.92;103478.56;5054329;28;20029;-74
2021/11/23 03:12:56;;;;;;;7.45;5.15;;;;;;;16.36;41.80;103479.06;5054212;28;20033;-75
2021/11/23 03:15:21;;;;;;;9.73;7.28;;;;;;;16.36;41.70;103476.31;5054274;28;20537;-74
2021/11/23 03:17:47;;;;;;;11.63;7.35;;;;;;;16.39;41.76;103483.19;5054192;28;20028;-74
2021/11/23 03:20:15;;;;;;;9.90;7.20;;;;;;;16.37;41.78;103483.47;5054308;28;20374;-75
2021/11/23 03:22:41;;;;;;;12.77;7.63;;;;;;;16.45;41.69;103476.53;5054055;28;20071;-75
2021/11/23 03:25:08;;;;;;;9.50;7.65;;;;;;;16.50;41.57;103468.22;5054063;28;20033;-74
2021/11/23 03:27:34;;;;;;;11.43;8.00;;;;;;;16.55;41.39;103473.72;5054030;28;20100;-75
2021/11/23 03:30:00;;;;;;;10.30;7.05;;;;;;;16.74;41.30;103473.03;5054124;28;20475;-75
2021/11/23 03:32:26;;;;;;;9.63;5.70;;;;;;;16.74;41.25;103467.50;5053997;28;20079;-84
2021/11/23 03:34:51;;;;;;;10.93;6.47;;;;;;;16.67;41.00;103462.28;5053936;28;20549;-74
2021/11/23 03:37:21;;;;;;;8.43;5.85;;;;;;;16.43;41.76;103462.19;5053893;28;20078;-75
2021/11/23 03:39:48;;;;;;;9.53;6.27;;;;;;;16.30;42.04;103463.66;5052907;28;20486;-75
2021/11/23 03:42:14;;;;;;;11.93;7.53;;;;;;;16.31;42.21;103468.06;5053684;28;20112;-75
2021/11/23 03:44:40;;;;;;;9.52;6.00;;;;;;;16.31;42.25;103467.22;5051463;28;20131;-75
2021/11/23 03:47:08;;;;;;;8.95;5.80;;;;;;;16.40;41.95;103464.69;5053653;28;20060;-75
2021/11/23 03:49:35;;;;;;;8.23;5.07;;;;;;;16.37;41.90;103466.09;5053647;28;20060;-75
2021/11/23 03:52:02;;;;;;;9.30;4.20;;;;;;;16.76;41.21;103468.03;5053571;28;20040;-75
2021/11/23 03:54:28;;;;;;;4.95;3.60;;;;;;;16.89;40.79;103470.13;5053436;28;20029;-75
2021/11/23 03:56:54;;;;;;;5.85;3.25;;;;;;;16.94;40.77;103474.81;5053427;28;20432;-75
2021/11/23 03:59:20;;;;;;;7.90;4.13;;;;;;;16.87;40.80;103464.09;5053427;28;20029;-75
2021/11/23 04:01:46;;;;;;;7.22;4.30;;;;;;;16.84;40.56;103464.66;5053397;28;20025;-75
2021/11/23 04:04:11;;;;;;;6.13;3.40;;;;;;;16.87;40.66;103464.91;5053264;28;20037;-75
2021/11/23 04:06:38;;;;;;;7.72;3.67;;;;;;;16.85;40.60;103461.63;5053139;28;20028;-75
2021/11/23 04:09:04;;;;;;;5.88;3.40;;;;;;;16.88;40.51;103454.69;5052722;28;20040;-75
2021/11/23 04:11:30;;;;;;;5.53;3.33;;;;;;;16.90;40.50;103463.50;5053068;28;20028;-76
2021/11/23 04:13:56;;;;;;;4.93;2.80;;;;;;;16.92;40.57;103462.09;5053113;28;20044;-76
2021/11/23 04:16:23;;;;;;;5.47;3.10;;;;;;;16.90;40.44;103456.03;5053115;28;20029;-75
2021/11/23 04:18:50;;;;;;;5.45;2.80;;;;;;;16.89;40.53;103459.09;5035219;28;20049;-75
2021/11/23 04:21:16;;;;;;;3.72;2.90;;;;;;;16.92;40.51;103456.56;5053032;28;20029;-75
2021/11/23 04:23:42;;;;;;;7.18;3.58;;;;;;;17.00;40.34;103463.38;5052840;28;20035;-75
2021/11/23 04:26:07;;;;;;;7.82;3.17;;;;;;;16.98;40.29;103457.34;5052971;28;20037;-75
2021/11/23 04:28:33;;;;;;;7.15;3.50;;;;;;;16.68;40.88;103455.66;5035069;28;20021;-75
2021/11/23 04:30:59;;;;;;;5.68;2.92;;;;;;;16.49;41.31;103458.28;5052819;28;20036;-75
2021/11/23 04:33:24;;;;;;;4.90;2.72;;;;;;;16.48;41.33;103462.16;5052857;28;20100;-75
2021/11/23 04:35:50;;;;;;;7.47;2.63;;;;;;;16.41;41.58;103456.16;5052728;28;20116;-75
2021/11/23 04:38:15;;;;;;;5.80;2.10;;;;;;;16.44;41.81;103455.56;5052731;28;20033;-75
2021/11/23 04:40:42;;;;;;;5.18;3.22;;;;;;;16.45;41.60;103459.13;5034835;28;20040;-75
2021/11/23 04:43:09;;;;;;;5.20;3.00;;;;;;;16.42;41.63;103452.28;5052336;28;20083;-78
2021/11/23 04:45:36;;;;;;;7.53;3.38;;;;;;;16.48;41.52;103459.41;5052990;28;20021;-75
2021/11/23 04:48:02;;;;;;;4.45;2.50;;;;;;;16.49;41.45;103450.00;5052865;28;20131;-75
2021/11/23 04:50:28;;;;;;;3.92;2.20;;;;;;;16.51;41.52;103453.31;5052590;28;20033;-75
2021/11/23 04:52:54;;;;;;;7.10;3.08;;;;;;;16.52;41.38;103457.72;5052725;28;20021;-74
2021/11/23 04:55:20;;;;;;;5.72;2.22;;;;;;;16.49;41.46;103452.78;5052486;28;20063;-75
2021/11/23 04:57:46;;;;;;;6.00;2.55;;;;;;;16.46;41.47;103452.50;5052532;28;20024;-75
2021/11/23 05:00:14;;;;;;;5.50;2.42;;;;;;;16.45;41.67;103448.09;5052435;28;20096;-75
2021/11/23 05:02:41;;;;;;;8.73;2.45;;;;;;;16.48;41.33;103447.53;5052467;28;20079;-76
2021/11/23 05:05:07;;;;;;;5.32;2.05;;;;;;;16.49;41.40;103454.72;5052432;28;20047;-75
2021/11/23 05:07:33;;;;;;;6.43;2.42;;;;;;;16.44;41.42;103451.97;5052468;28;20021;-75
2021/11/23 05:09:59;;;;;;;4.07;1.70;;;;;;;16.45;41.32;103445.34;5052532;28;20048;-75
2021/11/23 05:12:24;;;;;;;5.50;2.42;;;;;;;16.40;41.42;103437.94;5052517;28;20032;-82
2021/11/23 05:14:51;;;;;;;8.48;2.00;;;;;;;16.47;41.44;103438.41;5052381;28;20043;-75
2021/11/23 05:17:17;;;;;;;3.25;1.52;;;;;;;16.47;41.20;103438.41;5052342;28;20025;-75
2021/11/23 05:19:43;;;;;;;2.58;1.52;;;;;;;16.47;41.13;103435.66;5055079;28;20017;-74
2021/11/23 05:22:08;;;;;;;4.55;1.98;;;;;;;16.46;41.26;103436.78;5056277;28;20024;-75
2021/11/23 05:24:34;;;;;;;4.05;1.52;;;;;;;16.47;41.24;103430.13;5056402;28;20024;-83
2021/11/23 05:27:01;;;;;;;4.80;1.55;;;;;;;16.59;40.91;103441.63;5056440;28;20100;-75
2021/11/23 05:29:28;;;;;;;5.55;1.50;;;;;;;16.62;40.84;103435.56;5038370;28;20490;-75
2021/11/23 05:31:53;;;;;;;3.88;1.77;;;;;;;16.55;40.99;103439.72;5056337;28;20017;-75
2021/11/23 05:34:19;;;;;;;6.40;2.33;;;;;;;16.60;40.87;103443.28;5056270;28;20402;-75
2021/11/23 05:36:46;;;;;;;11.20;1.88;;;;;;;16.65;40.89;103439.66;5056255;28;20017;-75
2021/11/23 05:39:12;;;;;;;5.57;1.50;;;;;;;16.67;40.75;103439.38;5056113;28;20021;-75
2021/11/23 05:41:39;;;;;;;2.60;1.58;;;;;;;16.70;40.71;103441.56;5056151;28;20028;-75
2021/11/23 05:44:05;;;;;;;5.60;1.60;;;;;;;16.67;40.78;103445.72;5055783;28;20045;-75
2021/11/23 05:46:31;;;;;;;5.47;1.58;;;;;;;16.69;40.67;103437.13;5056067;28;20064;-75
2021/11/23 05:48:56;;;;;;;3.63;1.50;;;;;;;16.64;40.72;103438.84;5038092;28;20111;-75
2021/11/23 05:51:22;;;;;;;4.13;1.48;;;;;;;16.68;40.79;103441.03;5038092;28;20368;-75
2021/11/23 05:53:48;;;;;;;3.92;1.77;;;;;;;17.11;39.77;103442.84;5037902;28;20025;-75
2021/11/23 05:56:14;;;;;;;4.75;1.85;;;;;;;17.22;39.48;103440.78;5037490;28;20021;-75
2021/11/23 05:58:40;;;;;;;6.88;1.52;;;;;;;17.26;39.41;103432.75;5054152;28;20036;-75
2021/11/23 06:01:06;;;;;;;4.57;1.65;;;;;;;17.22;39.60;103439.97;5054949;28;20029;-75
2021/11/23 06:03:31;;;;;;;4.85;1.58;;;;;;;17.14;39.70;103435.91;5055655;28;20029;-75
2021/11/23 06:05:57;;;;;;;4.82;1.50;;;;;;;17.09;39.89;103433.22;5037724;28;20036;-75
2021/11/23 06:08:23;;;;;;;3.60;1.35;;;;;;;17.12;39.76;103429.88;5055544;28;20055;-75
2021/11/23 06:10:49;;;;;;;4.70;1.33;;;;;;;17.06;39.87;103433.78;5055544;28;20532;-80
2021/11/23 06:13:15;;;;;;;4.97;1.63;;;;;;;16.98;39.99;103438.00;5055445;28;20547;-75
2021/11/23 06:15:44;;;;;;;4.50;1.88;;;;;;;17.00;39.98;103430.25;5055491;28;20074;-76
2021/11/23 06:18:13;;;;;;;2.55;1.42;;;;;;;17.21;39.48;103422.56;5055357;28;20025;-75
2021/11/23 06:20:38;;;;;;;11.65;1.95;;;;;;;17.13;39.73;103431.50;5055456;28;20028;-75
2021/11/23 06:23:04;;;;;;;4.07;1.60;;;;;;;17.06;39.76;103425.50;5055254;28;20029;-76
2021/11/23 06:25:30;;;;;;;5.32;1.85;;;;;;;17.08;39.80;103426.06;5055241;28;20053;-75
2021/11/23 06:27:56;;;;;;;6.35;1.40;;;;;;;17.04;39.91;103434.09;5055312;28;20021;-75
2021/11/23 06:30:22;;;;;;;4.80;2.63;;;;;;;17.08;39.57;103424.13;5054469;28;20028;-75
2021/11/23 06:32:48;;;;;;;6.45;3.10;;;;;;;17.10;39.74;103424.63;5055124;28;20033;-75
2021/11/23 06:35:14;;;;;;;3.25;1.90;;;;;;;17.19;39.47;103422.06;5055135;28;20067;-85
2021/11/23 06:37:39;;;;;;;8.30;2.95;;;;;;;17.19;39.39;103420.13;5055019;28;20502;-75
2021/11/23 06:40:07;;;;;;;4.57;1.95;;;;;;;17.21;39.48;103425.34;5054944;28;20021;-76
2021/11/23 06:42:33;;;;;;;6.40;2.08;;;;;;;17.22;39.37;103426.16;5054912;28;20025;-75
2021/11/23 06:44:58;;;;;;;3.47;1.55;;;;;;;17.16;39.56;103425.41;5054700;28;20049;-74
2021/11/23 06:47:24;;;;;;;6.32;2.00;;;;;;;17.16;39.42;103425.41;5054719;28;20021;-75
2021/11/23 06:49:51;;;;;;;4.57;1.40;;;;;;;16.75;40.31;103433.25;5054759;28;20021;-75
2021/11/23 06:52:23;;;;;;;7.97;2.45;;;;;;;16.59;40.77;103433.34;5054868;28;20095;-75
2021/11/23 06:54:49;;;;;;;5.20;2.33;;;;;;;16.51;41.00;103424.88;5055058;28;20442;-75
2021/11/23 06:57:15;;;;;;;4.75;2.00;;;;;;;16.47;41.36;103421.84;5054752;28;20021;-85
2021/11/23 06:59:41;;;;;;;6.38;2.00;;;;;;;16.49;41.03;103424.34;5054536;28;20028;-75
2021/11/23 07:02:07;;;;;;;3.70;1.48;;;;;;;16.49;41.17;103432.63;5054452;28;20025;-75
2021/11/23 07:04:34;;;;;;;6.90;2.28;;;;;;;16.45;41.52;103431.53;5054546;28;20017;-83
2021/11/23 07:07:00;;;;;;;7.75;1.80;;;;;;;16.46;41.16;103425.72;5054463;28;20021;-74
2021/11/23 07:09:26;;;;;;;3.42;1.80;;;;;;;16.49;40.96;103425.19;5054420;28;20114;-74
2021/11/23 07:11:52;;;;;;;4.75;1.50;;;;;;;16.48;41.05;103428.22;5036400;28;20048;-75
2021/11/23 07:14:19;;;;;;;3.72;1.50;;;;;;;16.46;41.37;103422.97;5054246;28;20028;-75
2021/11/23 07:16:45;;;;;;;4.95;1.52;;;;;;;16.50;41.05;103417.72;5050024;28;20025;-85
2021/11/23 07:19:11;;;;;;;9.38;2.17;;;;;;;16.48;41.36;103417.19;5038810;28;20104;-75
2021/11/23 07:21:37;;;;;;;5.38;1.65;;;;;;;16.77;40.48;103415.28;5034476;28;20034;-78
2021/11/23 07:24:03;;;;;;;3.88;1.77;;;;;;;16.55;40.88;103424.03;5034147;28;20036;-75
2021/11/23 07:26:30;;;;;;;7.30;1.95;;;;;;;16.51;41.09;103417.41;5034089;28;20029;-75
2021/11/23 07:28:57;;;;;;;4.25;1.90;;;;;;;16.50;41.16;103418.53;5034068;28;20029;-75
2021/11/23 07:31:23;;;;;;;3.70;1.60;;;;;;;16.48;41.16;103415.25;5033984;28;20022;-75
2021/11/23 07:33:48;;;;;;;7.22;2.10;;;;;;;16.49;41.33;103419.66;5033976;28;20025;-74
2021/11/23 07:36:17;;;;;;;3.47;1.40;;;;;;;16.46;41.18;103416.63;5034005;28;20079;-74
2021/11/23 07:38:42;;;;;;;4.70;1.70;;;;;;;16.46;41.34;103422.16;5034028;28;20531;-75
2021/11/23 07:41:08;;;;;;;4.07;1.80;;;;;;;16.52;41.13;103419.06;5033850;28;20036;-76
2021/11/23 07:43:34;;;;;;;5.45;2.35;;;;;;;16.51;41.28;103424.88;5014748;28;20060;-76
2021/11/23 07:45:59;;;;;;;5.03;1.83;;;;;;;16.47;41.23;103418.28;5033769;28;20033;-75
2021/11/23 07:48:25;;;;;;;6.82;2.15;;;;;;;16.52;41.07;103429.28;5035102;28;20045;-75
2021/11/23 07:50:50;;;;;;;4.32;1.95;;;;;;;16.45;41.46;103426.03;5037460;28;20029;-74
2021/11/23 07:53:17;;;;;;;3.33;1.63;;;;;;;16.51;41.01;103439.50;5015784;28;20067;-74
2021/11/23 07:55:48;;;;;;;4.63;2.13;;;;;;;16.51;41.14;103436.75;5033495;28;20028;-75
2021/11/23 07:58:14;;;;;;;6.25;2.85;;;;;;;16.52;40.88;103443.09;5033540;28;20025;-75
2021/11/23 08:00:40;;;;;;;4.68;2.10;;;;;;;16.53;41.20;103433.69;5035322;28;20029;-74
2021/11/23 08:03:07;;;;;;;5.15;1.90;;;;;;;16.54;41.42;103438.09;5037850;28;20507;-74
2021/11/23 08:05:34;;;;;;;3.63;1.83;;;;;;;16.55;41.20;103429.53;5027734;28;20026;-77
2021/11/23 08:08:01;;;;;;;6.72;2.53;;;;;;;16.49;41.11;103432.63;5037507;28;20044;-76
2021/11/23 08:10:27;;;;;;;8.43;3.42;;;;;;;16.51;41.16;103433.97;5031838;28;20026;-74
2021/11/23 08:12:52;;;;;;;10.23;5.40;;;;;;;16.51;41.13;103433.97;5017371;28;20040;-75
2021/11/23 08:15:18;;;;;;;10.52;3.05;;;;;;;16.59;41.23;103436.13;5017920;28;20101;-76
2021/11/23 08:17:46;;;;;;;7.25;2.35;;;;;;;16.49;41.40;103438.97;5017323;28;20056;-76
2021/11/23 08:20:12;;;;;;;8.00;2.47;;;;;;;16.49;41.45;103441.72;5035853;28;20056;-77
2021/11/23 08:22:39;;;;;;;5.70;2.67;;;;;;;16.46;41.57;103442.28;5035708;28;20518;-75
2021/11/23 08:25:06;;;;;;;6.82;2.50;;;;;;;16.47;41.53;103449.44;5035829;28;20256;-75
2021/11/23 08:27:32;;;;;;;6.90;2.38;;;;;;;16.46;41.35;103447.00;5017526;28;20490;-75
2021/11/23 08:29:59;;;;;;;8.32;2.50;;;;;;;16.53;41.28;103442.78;5022353;28;20033;-76
2021/11/23 08:32:25;;;;;;;9.00;5.53;;;;;;;16.49;41.23;103444.50;5016619;28;20021;-75
2021/11/23 08:34:51;;;;;;;3.90;2.58;;;;;;;16.48;41.33;103445.59;5017721;28;20052;-81
2021/11/23 08:37:16;;;;;;;9.85;2.63;;;;;;;16.55;41.25;103442.50;5036608;28;20025;-76
2021/11/23 08:39:42;;;;;;;11.75;4.72;;;;;;;16.56;41.29;103450.50;5029383;28;20044;-75
2021/11/23 08:42:07;;;;;;;3.83;2.67;;;;;;;16.64;41.16;103444.38;5036776;28;20029;-76
2021/11/23 08:44:33;;;;;;;5.68;2.10;;;;;;;16.66;41.07;103452.34;5037789;28;20492;-75
2021/11/23 08:46:59;;;;;;;6.65;2.42;;;;;;;16.68;40.98;103454.81;5042070;28;20018;-75
2021/11/23 08:49:24;;;;;;;5.00;2.38;;;;;;;16.46;41.50;103456.09;5036491;28;20472;-75
2021/11/23 08:51:53;;;;;;;6.22;2.38;;;;;;;16.47;41.33;103449.44;5041615;28;20079;-75
2021/11/23 08:54:18;;;;;;;7.13;3.22;;;;;;;16.63;41.09;103452.94;5021974;28;20025;-74
2021/11/23 08:56:52;;;;;;;9.27;3.45;;;;;;;16.65;41.23;103451.53;5040500;28;20106;-74
2021/11/23 08:59:18;;;;;;;11.15;3.28;;;;;;;16.61;41.01;103458.72;5037643;28;20044;-75
2021/11/23 09:01:45;;;;;;;5.65;2.28;;;;;;;16.70;41.14;103459.00;5035162;28;20036;-76
2021/11/23 09:04:12;;;;;;;8.73;3.08;;;;;;;16.80;40.80;103463.59;5039228;28;20049;-79
2021/11/23 09:06:39;;;;;;;6.00;2.67;;;;;;;16.85;40.77;103458.00;5043803;28;20103;-78
2021/11/23 09:09:09;;;;;;;7.32;4.15;;;;;;;17.06;40.44;103456.72;5038743;28;20021;-74
2021/11/23 09:11:36;;;;;;;6.15;3.60;;;;;;;17.32;39.61;103453.69;5044840;28;20036;-85
2021/11/23 09:14:01;;;;;;;7.47;3.33;;;;;;;17.42;39.58;103453.56;5047448;28;20498;-75
2021/11/23 09:16:27;;;;;;;10.30;3.30;;;;;;;17.45;39.49;103462.09;5042282;28;20060;-80
2021/11/23 09:18:53;;;;;;;9.88;5.03;;;;;;;17.48;39.52;103461.53;5034508;28;20088;-76
2021/11/23 09:21:19;;;;;;;6.45;3.90;;;;;;;17.42;39.62;103456.34;5032180;28;20017;-75
2021/11/23 09:23:45;;;;;;;8.52;2.85;;;;;;;17.48;39.62;103457.94;5032333;28;20029;-75
2021/11/23 09:26:12;;;;;;;4.38;2.53;;;;;;;17.06;40.33;103466.94;5032002;28;20033;-74
2021/11/23 09:28:38;;;;;;;4.40;2.53;;;;;;;17.09;40.38;103467.19;5031298;28;20563;-74
2021/11/23 09:31:04;;;;;;;5.20;2.13;;;;;;;17.01;40.75;103462.31;5031070;28;20100;-74
2021/11/23 09:33:30;;;;;;;5.88;2.33;;;;;;;17.10;40.69;103462.50;5032468;28;20092;-74
2021/11/23 09:35:56;;;;;;;4.90;2.55;;;;;;;17.13;40.56;103461.91;5032271;28;20115;-75
2021/11/23 09:38:21;;;;;;;6.07;2.50;;;;;;;17.15;40.51;103465.19;5032236;28;20036;-76
2021/11/23 09:40:47;;;;;;;12.07;2.70;;;;;;;17.37;40.17;103459.16;5032138;28;20060;-75
2021/11/23 09:43:13;;;;;;;6.72;2.53;;;;;;;17.43;40.00;103456.03;5031952;28;20140;-74
2021/11/23 09:45:38;;;;;;;7.43;2.75;;;;;;;17.53;39.80;103462.56;5032265;28;20116;-75
2021/11/23 09:48:09;;;;;;;7.10;3.50;;;;;;;17.50;39.91;103461.22;5032246;28;20100;-74
2021/11/23 09:50:40;;;;;;;8.20;4.68;;;;;;;17.41;40.18;103452.75;5013460;28;20053;-75
2021/11/23 09:53:07;;;;;;;5.22;3.55;;;;;;;17.46;39.84;103451.88;5029836;28;20064;-75
2021/11/23 09:55:33;;;;;;;6.28;2.60;;;;;;;17.46;40.31;103454.66;5030244;28;20025;-74
2021/11/23 09:57:58;;;;;;;5.28;3.00;;;;;;;17.51;39.91;103449.03;5030342;28;20026;-75
2021/11/23 10:00:32;;;;;;;4.65;2.08;;;;;;;17.50;39.91;103450.16;5030042;28;20075;-75
2021/11/23 10:03:09;;;;;;;7.72;4.03;;;;;;;17.58;40.17;103446.75;5030234;28;20037;-76
2021/11/23 10:05:38;;;;;;;5.70;2.25;;;;;;;17.64;39.94;103444.75;5031628;28;20369;-75
2021/11/23 10:08:18;;;;;;;5.95;2.45;;;;;;;17.57;39.98;103449.81;5035622;28;20025;-75
2021/11/23 10:10:53;;;;;;;7.03;2.75;;;;;;;17.59;40.08;103445.63;5035745;28;20051;-75
2021/11/23 10:13:21;;;;;;;5.68;3.15;;;;;;;17.75;39.61;103449.03;5035455;28;20083;-75
2021/11/23 10:15:49;;;;;;;4.18;2.25;;;;;;;17.72;39.78;103447.72;5018834;28;20090;-75
2021/11/23 10:18:23;;;;;;;6.25;2.33;;;;;;;17.75;39.79;103451.81;5039505;28;20391;-75
2021/11/23 10:20:57;;;;;;;10.60;6.72;;;;;;;17.82;39.78;103451.44;5039534;28;20386;-75
2021/11/23 10:23:32;;;;;;;9.77;4.10;;;;;;;17.75;39.80;103451.81;5039591;28;20033;-74
2021/11/23 10:26:14;;;;;;;5.30;2.38;;;;;;;17.82;39.72;103445.91;5038801;28;20017;-75
2021/11/23 10:28:44;;;;;;;6.47;1.85;;;;;;;17.87;39.54;103443.91;5038195;28;20075;-76
2021/11/23 10:31:12;;;;;;;4.75;2.35;;;;;;;17.93;39.49;103434.44;5039304;28;20033;-75
2021/11/23 10:33:39;;;;;;;4.13;2.13;;;;;;;17.93;39.69;103439.97;5039484;28;20025;-75
2021/11/23 10:36:09;;;;;;;6.40;2.00;;;;;;;17.94;39.61;103438.84;5032317;28;20437;-74
2021/11/23 10:38:36;;;;;;;6.07;3.10;;;;;;;17.92;39.63;103435.56;5052936;28;20028;-76
2021/11/23 10:41:11;;;;;;;3.65;2.42;;;;;;;17.82;39.72;103443.16;5055014;28;20585;-79
2021/11/23 10:43:40;;;;;;;4.65;2.67;;;;;;;17.86;39.81;103441.47;5051031;28;20052;-75
2021/11/23 10:46:19;;;;;;;3.58;1.90;;;;;;;17.79;39.86;103429.94;5054342;28;20029;-90
2021/11/23 10:48:53;;;;;;;12.68;4.55;;;;;;;17.82;39.94;103421.03;5054103;28;20032;-75
2021/11/23 10:51:20;;;;;;;8.82;4.85;;;;;;;17.80;39.98;103426.03;5054165;28;20063;-76
2021/11/23 10:53:47;;;;;;;5.15;3.22;;;;;;;17.87;39.86;103418.22;5054425;28;20471;-73
2021/11/23 10:56:15;;;;;;;5.97;4.15;;;;;;;17.80;39.98;103421.34;5053592;28;20023;-74
2021/11/23 10:58:43;;;;;;;6.57;3.22;;;;;;;17.69;40.51;103428.94;5054870;28;20352;-87
2021/11/23 11:01:10;;;;;;;9.95;4.40;;;;;;;17.74;40.23;103419.75;5040310;28;20025;-91
2021/11/23 11:03:37;;;;;;;6.75;4.60;;;;;;;17.87;40.14;103416.25;5048414;28;20067;-89
2021/11/23 11:06:05;;;;;;;28.65;25.95;;;;;;;17.70;40.56;103419.53;5037844;28;20032;-73
2021/11/23 11:08:45;;;;;;;7.10;4.93;;;;;;;17.92;40.12;103416.19;5055487;28;20025;-74
2021/11/23 11:11:19;;;;;;;6.90;3.85;;;;;;;18.02;40.01;103426.28;5036674;28;20425;-73
2021/11/23 11:13:52;;;;;;;6.85;3.78;;;;;;;18.06;40.24;103419.06;5055397;28;20025;-73
2021/11/23 11:16:20;;;;;;;5.97;2.97;;;;;;;18.22;39.92;103422.41;5054939;28;20132;-73
2021/11/23 11:19:06;;;;;;;6.32;3.20;;;;;;;18.19;39.88;103423.81;5058792;28;20095;-81
2021/11/23 11:21:37;;;;;;;7.55;5.15;;;;;;;18.41;39.65;103419.59;5039924;28;20021;-72